sensor_id;sensor_type;location;lat;lon;timestamp;pressure;altitude;pressure_sealevel;temperature;humidity
76086;BME280;64791;0.000;0.000;2023-06-10T00:01:14;93414.50;;;13.44;88.15
76086;BME280;64791;0.000;0.000;2023-06-10T00:03:40;93410.59;;;13.47;88.04
76086;BME280;64791;0.000;0.000;2023-06-10T00:06:06;93410.00;;;13.48;87.09
76086;BME280;64791;0.000;0.000;2023-06-10T00:08:32;93406.63;;;13.50;87.46
76086;BME280;64791;0.000;0.000;2023-06-10T00:10:58;93413.50;;;13.49;87.43
76086;BME280;64791;0.000;0.000;2023-06-10T00:13:23;93412.03;;;13.48;87.37
76086;BME280;64791;0.000;0.000;2023-06-10T00:15:49;93408.69;;;13.49;87.54
76086;BME280;64791;0.000;0.000;2023-06-10T00:18:14;93406.91;;;13.44;87.67
76086;BME280;64791;0.000;0.000;2023-06-10T00:20:41;93405.16;;;13.39;87.69
76086;BME280;64791;0.000;0.000;2023-06-10T00:23:07;93409.66;;;13.35;87.83
76086;BME280;64791;0.000;0.000;2023-06-10T00:25:34;93408.75;;;13.32;87.74
76086;BME280;64791;0.000;0.000;2023-06-10T00:27:59;93420.09;;;13.27;87.64
76086;BME280;64791;0.000;0.000;2023-06-10T00:30:28;93426.78;;;13.24;87.18
76086;BME280;64791;0.000;0.000;2023-06-10T00:32:53;93428.69;;;13.21;86.23
76086;BME280;64791;0.000;0.000;2023-06-10T00:35:19;93424.75;;;13.24;87.22
76086;BME280;64791;0.000;0.000;2023-06-10T00:37:45;93428.97;;;13.25;87.72
76086;BME280;64791;0.000;0.000;2023-06-10T00:40:10;93431.59;;;13.23;88.11
76086;BME280;64791;0.000;0.000;2023-06-10T00:42:36;93432.16;;;13.22;87.80
76086;BME280;64791;0.000;0.000;2023-06-10T00:45:02;93437.97;;;13.16;88.48
76086;BME280;64791;0.000;0.000;2023-06-10T00:47:28;93434.31;;;13.14;88.81
76086;BME280;64791;0.000;0.000;2023-06-10T00:49:53;93432.28;;;13.14;89.07
76086;BME280;64791;0.000;0.000;2023-06-10T00:52:20;93434.47;;;13.16;88.77
76086;BME280;64791;0.000;0.000;2023-06-10T00:54:47;93429.66;;;13.16;89.07
76086;BME280;64791;0.000;0.000;2023-06-10T00:57:14;93419.03;;;13.13;89.49
76086;BME280;64791;0.000;0.000;2023-06-10T00:59:40;93419.56;;;13.11;89.28
76086;BME280;64791;0.000;0.000;2023-06-10T01:02:07;93420.75;;;13.08;89.70
76086;BME280;64791;0.000;0.000;2023-06-10T01:04:32;93415.91;;;13.09;89.84
76086;BME280;64791;0.000;0.000;2023-06-10T01:11:54;93419.88;;;13.15;89.52
76086;BME280;64791;0.000;0.000;2023-06-10T01:14:23;93421.66;;;13.20;89.37
76086;BME280;64791;0.000;0.000;2023-06-10T01:16:49;93415.69;;;13.24;90.04
76086;BME280;64791;0.000;0.000;2023-06-10T01:19:15;93412.53;;;13.27;89.72
76086;BME280;64791;0.000;0.000;2023-06-10T01:21:42;93424.50;;;13.30;89.33
76086;BME280;64791;0.000;0.000;2023-06-10T01:24:14;93415.63;;;13.31;89.51
76086;BME280;64791;0.000;0.000;2023-06-10T01:26:43;93419.84;;;13.32;89.54
76086;BME280;64791;0.000;0.000;2023-06-10T01:29:20;93430.75;;;13.30;89.67
76086;BME280;64791;0.000;0.000;2023-06-10T01:31:48;93431.00;;;13.25;88.94
76086;BME280;64791;0.000;0.000;2023-06-10T01:34:16;93431.44;;;13.21;88.73
76086;BME280;64791;0.000;0.000;2023-06-10T01:36:43;93431.69;;;13.16;88.75
76086;BME280;64791;0.000;0.000;2023-06-10T01:39:10;93428.63;;;13.12;88.50
76086;BME280;64791;0.000;0.000;2023-06-10T01:41:36;93430.94;;;13.06;87.85
76086;BME280;64791;0.000;0.000;2023-06-10T01:44:03;93433.53;;;13.04;88.38
76086;BME280;64791;0.000;0.000;2023-06-10T01:46:28;93435.47;;;13.11;89.63
76086;BME280;64791;0.000;0.000;2023-06-10T01:48:55;93438.41;;;13.13;90.01
76086;BME280;64791;0.000;0.000;2023-06-10T01:51:21;93430.66;;;13.11;89.45
76086;BME280;64791;0.000;0.000;2023-06-10T01:53:46;93432.13;;;13.12;89.46
76086;BME280;64791;0.000;0.000;2023-06-10T01:56:13;93422.84;;;13.17;89.92
76086;BME280;64791;0.000;0.000;2023-06-10T01:58:43;93423.28;;;13.23;90.11
76086;BME280;64791;0.000;0.000;2023-06-10T02:01:09;93427.50;;;13.24;89.68
76086;BME280;64791;0.000;0.000;2023-06-10T02:03:36;93423.59;;;13.27;89.69
76086;BME280;64791;0.000;0.000;2023-06-10T02:06:02;93421.75;;;13.30;89.60
76086;BME280;64791;0.000;0.000;2023-06-10T02:08:27;93429.31;;;13.29;88.44
76086;BME280;64791;0.000;0.000;2023-06-10T02:10:53;93421.75;;;13.39;89.66
76086;BME280;64791;0.000;0.000;2023-06-10T02:13:19;93421.03;;;13.39;88.88
76086;BME280;64791;0.000;0.000;2023-06-10T02:15:45;93423.38;;;13.42;88.99
76086;BME280;64791;0.000;0.000;2023-06-10T02:18:10;93424.13;;;13.43;89.12
76086;BME280;64791;0.000;0.000;2023-06-10T02:20:37;93424.84;;;13.43;89.33
76086;BME280;64791;0.000;0.000;2023-06-10T02:23:03;93419.28;;;13.43;88.98
76086;BME280;64791;0.000;0.000;2023-06-10T02:25:29;93420.47;;;13.40;89.01
76086;BME280;64791;0.000;0.000;2023-06-10T02:27:56;93415.34;;;13.37;88.77
76086;BME280;64791;0.000;0.000;2023-06-10T02:30:22;93405.59;;;13.36;88.90
76086;BME280;64791;0.000;0.000;2023-06-10T02:32:48;93410.22;;;13.33;88.73
76086;BME280;64791;0.000;0.000;2023-06-10T02:35:15;93402.88;;;13.28;89.20
76086;BME280;64791;0.000;0.000;2023-06-10T02:37:41;93405.34;;;13.24;89.49
76086;BME280;64791;0.000;0.000;2023-06-10T02:40:07;93405.78;;;13.21;89.91
76086;BME280;64791;0.000;0.000;2023-06-10T02:42:34;93404.91;;;13.18;89.91
76086;BME280;64791;0.000;0.000;2023-06-10T02:45:01;93405.34;;;13.15;89.73
76086;BME280;64791;0.000;0.000;2023-06-10T02:47:34;93399.63;;;13.13;89.85
76086;BME280;64791;0.000;0.000;2023-06-10T02:50:00;93403.56;;;13.10;89.91
76086;BME280;64791;0.000;0.000;2023-06-10T02:52:30;93398.59;;;13.08;90.06
76086;BME280;64791;0.000;0.000;2023-06-10T02:54:56;93389.41;;;13.06;90.12
76086;BME280;64791;0.000;0.000;2023-06-10T02:57:22;93389.25;;;13.04;90.04
76086;BME280;64791;0.000;0.000;2023-06-10T02:59:48;93394.94;;;13.06;90.11
76086;BME280;64791;0.000;0.000;2023-06-10T03:02:14;93395.97;;;13.10;90.25
76086;BME280;64791;0.000;0.000;2023-06-10T03:04:47;93397.44;;;13.11;89.99
76086;BME280;64791;0.000;0.000;2023-06-10T03:07:16;93387.69;;;13.10;90.17
76086;BME280;64791;0.000;0.000;2023-06-10T03:09:41;93386.19;;;13.09;90.28
76086;BME280;64791;0.000;0.000;2023-06-10T03:12:10;93394.09;;;13.13;90.13
76086;BME280;64791;0.000;0.000;2023-06-10T03:14:40;93392.94;;;13.16;89.71
76086;BME280;64791;0.000;0.000;2023-06-10T03:17:06;93397.31;;;13.19;89.71
76086;BME280;64791;0.000;0.000;2023-06-10T03:19:35;93396.16;;;13.22;89.27
76086;BME280;64791;0.000;0.000;2023-06-10T03:22:21;93403.47;;;13.27;88.90
76086;BME280;64791;0.000;0.000;2023-06-10T03:25:04;93390.84;;;13.33;88.26
76086;BME280;64791;0.000;0.000;2023-06-10T03:27:30;93398.31;;;13.40;88.27
76086;BME280;64791;0.000;0.000;2023-06-10T03:29:59;93398.03;;;13.46;87.32
76086;BME280;64791;0.000;0.000;2023-06-10T03:32:26;93401.53;;;13.56;86.17
76086;BME280;64791;0.000;0.000;2023-06-10T03:34:51;93403.06;;;13.67;86.93
76086;BME280;64791;0.000;0.000;2023-06-10T03:37:25;93395.59;;;13.69;86.13
76086;BME280;64791;0.000;0.000;2023-06-10T03:39:51;93397.81;;;13.80;86.74
76086;BME280;64791;0.000;0.000;2023-06-10T03:42:16;93405.25;;;13.87;85.98
76086;BME280;64791;0.000;0.000;2023-06-10T03:44:42;93405.72;;;13.93;85.94
76086;BME280;64791;0.000;0.000;2023-06-10T03:47:07;93414.75;;;14.03;85.16
76086;BME280;64791;0.000;0.000;2023-06-10T03:49:33;93413.75;;;14.08;85.43
76086;BME280;64791;0.000;0.000;2023-06-10T03:52:01;93416.06;;;14.12;85.57
76086;BME280;64791;0.000;0.000;2023-06-10T03:54:26;93423.53;;;14.19;85.59
76086;BME280;64791;0.000;0.000;2023-06-10T03:56:52;93426.31;;;14.19;86.32
76086;BME280;64791;0.000;0.000;2023-06-10T03:59:17;93426.31;;;14.19;86.61
76086;BME280;64791;0.000;0.000;2023-06-10T04:01:43;93424.13;;;14.17;86.64
76086;BME280;64791;0.000;0.000;2023-06-10T04:04:09;93431.41;;;14.13;86.49
76086;BME280;64791;0.000;0.000;2023-06-10T04:06:35;93430.13;;;14.14;85.97
76086;BME280;64791;0.000;0.000;2023-06-10T04:09:02;93436.97;;;14.13;86.08
76086;BME280;64791;0.000;0.000;2023-06-10T04:11:28;93435.06;;;14.15;85.26
76086;BME280;64791;0.000;0.000;2023-06-10T04:13:56;93434.22;;;14.22;84.24
76086;BME280;64791;0.000;0.000;2023-06-10T04:16:22;93433.06;;;14.45;83.28
76086;BME280;64791;0.000;0.000;2023-06-10T04:18:48;93437.75;;;14.52;81.99
76086;BME280;64791;0.000;0.000;2023-06-10T04:21:16;93436.97;;;14.70;81.16
76086;BME280;64791;0.000;0.000;2023-06-10T04:23:42;93439.47;;;14.76;83.11
76086;BME280;64791;0.000;0.000;2023-06-10T04:26:09;93424.56;;;14.81;82.70
76086;BME280;64791;0.000;0.000;2023-06-10T04:28:36;93427.78;;;14.87;83.19
76086;BME280;64791;0.000;0.000;2023-06-10T04:31:01;93431.22;;;15.06;83.23
76086;BME280;64791;0.000;0.000;2023-06-10T04:33:30;93436.75;;;15.16;81.63
76086;BME280;64791;0.000;0.000;2023-06-10T04:35:55;93432.91;;;15.31;80.88
76086;BME280;64791;0.000;0.000;2023-06-10T04:38:23;93432.88;;;15.40;80.46
76086;BME280;64791;0.000;0.000;2023-06-10T04:40:49;93428.34;;;15.35;80.74
76086;BME280;64791;0.000;0.000;2023-06-10T04:43:16;93430.41;;;15.35;81.27
76086;BME280;64791;0.000;0.000;2023-06-10T04:45:44;93439.59;;;15.37;81.97
76086;BME280;64791;0.000;0.000;2023-06-10T04:48:10;93438.56;;;15.52;80.86
76086;BME280;64791;0.000;0.000;2023-06-10T04:50:36;93431.63;;;15.62;80.16
76086;BME280;64791;0.000;0.000;2023-06-10T04:53:03;93436.25;;;15.79;79.46
76086;BME280;64791;0.000;0.000;2023-06-10T04:55:29;93438.53;;;15.92;79.08
76086;BME280;64791;0.000;0.000;2023-06-10T04:57:54;93435.94;;;16.06;78.46
76086;BME280;64791;0.000;0.000;2023-06-10T05:00:20;93441.06;;;16.09;79.23
76086;BME280;64791;0.000;0.000;2023-06-10T05:02:46;93432.50;;;16.17;80.10
76086;BME280;64791;0.000;0.000;2023-06-10T05:05:18;93438.00;;;16.26;79.62
76086;BME280;64791;0.000;0.000;2023-06-10T05:07:44;93439.84;;;16.33;79.27
76086;BME280;64791;0.000;0.000;2023-06-10T05:10:09;93433.69;;;16.35;78.50
76086;BME280;64791;0.000;0.000;2023-06-10T05:12:38;93432.63;;;16.40;78.16
76086;BME280;64791;0.000;0.000;2023-06-10T05:15:04;93428.00;;;16.54;76.49
76086;BME280;64791;0.000;0.000;2023-06-10T05:17:30;93423.34;;;16.68;76.32
76086;BME280;64791;0.000;0.000;2023-06-10T05:19:56;93422.41;;;16.75;75.61
76086;BME280;64791;0.000;0.000;2023-06-10T05:22:22;93425.00;;;16.94;75.87
76086;BME280;64791;0.000;0.000;2023-06-10T05:24:50;93415.28;;;17.51;74.67
76086;BME280;64791;0.000;0.000;2023-06-10T05:27:16;93414.47;;;17.60;73.62
76086;BME280;64791;0.000;0.000;2023-06-10T05:29:41;93417.13;;;17.70;74.34
76086;BME280;64791;0.000;0.000;2023-06-10T05:32:07;93411.41;;;17.79;74.06
76086;BME280;64791;0.000;0.000;2023-06-10T05:34:33;93413.25;;;17.86;73.51
76086;BME280;64791;0.000;0.000;2023-06-10T05:36:59;93408.75;;;18.04;73.74
76086;BME280;64791;0.000;0.000;2023-06-10T05:39:24;93421.31;;;18.29;73.83
76086;BME280;64791;0.000;0.000;2023-06-10T05:41:50;93407.22;;;18.50;72.95
76086;BME280;64791;0.000;0.000;2023-06-10T05:44:16;93418.84;;;18.58;74.47
76086;BME280;64791;0.000;0.000;2023-06-10T05:46:41;93425.09;;;18.70;74.52
76086;BME280;64791;0.000;0.000;2023-06-10T05:49:07;93428.06;;;18.85;74.63
76086;BME280;64791;0.000;0.000;2023-06-10T05:51:33;93427.19;;;18.95;73.65
76086;BME280;64791;0.000;0.000;2023-06-10T05:53:59;93427.69;;;18.91;74.19
76086;BME280;64791;0.000;0.000;2023-06-10T05:56:24;93428.38;;;19.03;73.56
76086;BME280;64791;0.000;0.000;2023-06-10T05:58:50;93426.63;;;19.10;73.31
76086;BME280;64791;0.000;0.000;2023-06-10T06:01:16;93428.16;;;18.99;70.99
76086;BME280;64791;0.000;0.000;2023-06-10T06:03:42;93432.47;;;18.77;69.97
76086;BME280;64791;0.000;0.000;2023-06-10T06:06:07;93436.53;;;18.99;70.32
76086;BME280;64791;0.000;0.000;2023-06-10T06:08:33;93434.22;;;19.46;70.59
76086;BME280;64791;0.000;0.000;2023-06-10T06:10:59;93440.94;;;19.93;70.40
76086;BME280;64791;0.000;0.000;2023-06-10T06:13:24;93445.22;;;20.08;69.56
76086;BME280;64791;0.000;0.000;2023-06-10T06:15:50;93452.88;;;19.94;69.54
76086;BME280;64791;0.000;0.000;2023-06-10T06:18:15;93447.88;;;19.79;70.35
76086;BME280;64791;0.000;0.000;2023-06-10T06:20:41;93447.78;;;19.51;70.86
76086;BME280;64791;0.000;0.000;2023-06-10T06:23:07;93448.28;;;19.34;71.57
76086;BME280;64791;0.000;0.000;2023-06-10T06:25:35;93444.53;;;19.30;72.71
76086;BME280;64791;0.000;0.000;2023-06-10T06:28:01;93447.72;;;19.24;72.81
76086;BME280;64791;0.000;0.000;2023-06-10T06:30:27;93446.63;;;19.18;72.40
76086;BME280;64791;0.000;0.000;2023-06-10T06:32:53;93445.66;;;19.25;72.07
76086;BME280;64791;0.000;0.000;2023-06-10T06:35:19;93445.88;;;19.29;72.78
76086;BME280;64791;0.000;0.000;2023-06-10T06:37:44;93444.34;;;19.39;72.48
76086;BME280;64791;0.000;0.000;2023-06-10T06:40:16;93439.50;;;19.40;73.09
76086;BME280;64791;0.000;0.000;2023-06-10T06:42:42;93437.09;;;19.34;71.27
76086;BME280;64791;0.000;0.000;2023-06-10T06:45:22;93438.06;;;19.52;70.81
76086;BME280;64791;0.000;0.000;2023-06-10T06:47:48;93433.63;;;19.75;69.88
76086;BME280;64791;0.000;0.000;2023-06-10T06:50:13;93439.47;;;19.79;68.41
76086;BME280;64791;0.000;0.000;2023-06-10T06:52:39;93431.31;;;19.57;69.14
76086;BME280;64791;0.000;0.000;2023-06-10T06:55:05;93434.47;;;19.63;69.36
76086;BME280;64791;0.000;0.000;2023-06-10T06:57:31;93428.63;;;19.59;70.04
76086;BME280;64791;0.000;0.000;2023-06-10T06:59:57;93429.06;;;19.54;69.86
76086;BME280;64791;0.000;0.000;2023-06-10T07:02:23;93427.31;;;19.60;70.71
76086;BME280;64791;0.000;0.000;2023-06-10T07:04:48;93430.13;;;19.74;70.89
76086;BME280;64791;0.000;0.000;2023-06-10T07:07:15;93431.50;;;19.87;70.80
76086;BME280;64791;0.000;0.000;2023-06-10T07:09:40;93435.63;;;19.86;70.54
76086;BME280;64791;0.000;0.000;2023-06-10T07:12:06;93433.97;;;19.81;71.09
76086;BME280;64791;0.000;0.000;2023-06-10T07:14:32;93430.84;;;19.88;70.19
76086;BME280;64791;0.000;0.000;2023-06-10T07:16:58;93434.59;;;19.93;70.47
76086;BME280;64791;0.000;0.000;2023-06-10T07:19:23;93433.81;;;20.04;70.06
76086;BME280;64791;0.000;0.000;2023-06-10T07:21:49;93431.94;;;20.08;71.15
76086;BME280;64791;0.000;0.000;2023-06-10T07:24:14;93434.75;;;20.08;69.34
76086;BME280;64791;0.000;0.000;2023-06-10T07:26:40;93439.50;;;20.19;69.46
76086;BME280;64791;0.000;0.000;2023-06-10T07:29:06;93435.66;;;20.40;68.50
76086;BME280;64791;0.000;0.000;2023-06-10T07:31:31;93433.44;;;20.66;68.30
76086;BME280;64791;0.000;0.000;2023-06-10T07:33:57;93430.91;;;20.85;68.04
76086;BME280;64791;0.000;0.000;2023-06-10T07:36:22;93432.66;;;20.92;67.01
76086;BME280;64791;0.000;0.000;2023-06-10T07:38:48;93437.25;;;21.15;67.78
76086;BME280;64791;0.000;0.000;2023-06-10T07:41:14;93435.09;;;21.29;66.34
76086;BME280;64791;0.000;0.000;2023-06-10T07:43:43;93420.09;;;21.38;66.84
76086;BME280;64791;0.000;0.000;2023-06-10T07:46:08;93422.84;;;21.52;65.58
76086;BME280;64791;0.000;0.000;2023-06-10T07:48:34;93419.78;;;21.61;64.92
76086;BME280;64791;0.000;0.000;2023-06-10T07:50:59;93423.34;;;21.93;64.33
76086;BME280;64791;0.000;0.000;2023-06-10T07:53:25;93426.91;;;22.27;63.14
76086;BME280;64791;0.000;0.000;2023-06-10T07:55:51;93419.91;;;22.43;63.84
76086;BME280;64791;0.000;0.000;2023-06-10T07:58:16;93422.19;;;22.47;63.52
76086;BME280;64791;0.000;0.000;2023-06-10T08:00:42;93421.59;;;22.66;61.71
76086;BME280;64791;0.000;0.000;2023-06-10T08:03:07;93420.94;;;24.69;56.53
76086;BME280;64791;0.000;0.000;2023-06-10T08:05:33;93418.47;;;26.39;54.72
76086;BME280;64791;0.000;0.000;2023-06-10T08:07:59;93411.91;;;25.38;51.43
76086;BME280;64791;0.000;0.000;2023-06-10T08:10:24;93409.97;;;26.39;50.62
76086;BME280;64791;0.000;0.000;2023-06-10T08:12:50;93406.47;;;27.51;50.11
76086;BME280;64791;0.000;0.000;2023-06-10T08:15:16;93404.81;;;27.70;47.77
76086;BME280;64791;0.000;0.000;2023-06-10T08:17:42;93412.25;;;27.87;46.55
76086;BME280;64791;0.000;0.000;2023-06-10T08:20:07;93405.91;;;27.57;48.82
76086;BME280;64791;0.000;0.000;2023-06-10T08:22:33;93410.22;;;26.75;49.66
76086;BME280;64791;0.000;0.000;2023-06-10T08:24:59;93401.13;;;26.01;49.90
76086;BME280;64791;0.000;0.000;2023-06-10T08:27:25;93395.16;;;27.83;45.71
76086;BME280;64791;0.000;0.000;2023-06-10T08:29:50;93393.44;;;28.73;45.24
76086;BME280;64791;0.000;0.000;2023-06-10T08:32:16;93398.25;;;29.90;41.97
76086;BME280;64791;0.000;0.000;2023-06-10T08:34:42;93399.09;;;29.11;40.27
76086;BME280;64791;0.000;0.000;2023-06-10T08:37:07;93399.75;;;29.49;40.94
76086;BME280;64791;0.000;0.000;2023-06-10T08:39:33;93396.75;;;28.97;43.18
76086;BME280;64791;0.000;0.000;2023-06-10T08:44:31;93377.91;;;29.62;38.50
76086;BME280;64791;0.000;0.000;2023-06-10T08:46:59;93380.47;;;28.24;38.24
76086;BME280;64791;0.000;0.000;2023-06-10T08:49:29;93388.84;;;27.87;43.85
76086;BME280;64791;0.000;0.000;2023-06-10T08:51:59;93381.97;;;27.02;41.92
76086;BME280;64791;0.000;0.000;2023-06-10T08:54:27;93386.91;;;27.95;43.24
76086;BME280;64791;0.000;0.000;2023-06-10T08:56:54;93374.47;;;29.23;36.31
76086;BME280;64791;0.000;0.000;2023-06-10T08:59:21;93377.94;;;30.71;36.66
76086;BME280;64791;0.000;0.000;2023-06-10T09:01:47;93379.78;;;32.05;37.76
76086;BME280;64791;0.000;0.000;2023-06-10T09:04:13;93376.13;;;31.96;35.68
76086;BME280;64791;0.000;0.000;2023-06-10T09:06:39;93371.66;;;31.67;37.10
76086;BME280;64791;0.000;0.000;2023-06-10T09:09:05;93373.94;;;31.93;32.91
76086;BME280;64791;0.000;0.000;2023-06-10T09:11:31;93371.06;;;31.87;35.00
76086;BME280;64791;0.000;0.000;2023-06-10T09:13:57;93365.50;;;32.09;33.53
76086;BME280;64791;0.000;0.000;2023-06-10T09:16:23;93362.66;;;32.07;31.81
76086;BME280;64791;0.000;0.000;2023-06-10T09:18:49;93371.38;;;32.41;35.23
76086;BME280;64791;0.000;0.000;2023-06-10T09:21:23;93362.19;;;32.69;35.18
76086;BME280;64791;0.000;0.000;2023-06-10T09:23:49;93365.66;;;32.43;35.93
76086;BME280;64791;0.000;0.000;2023-06-10T09:26:15;93353.47;;;32.29;34.89
76086;BME280;64791;0.000;0.000;2023-06-10T09:28:44;93353.63;;;32.71;34.11
76086;BME280;64791;0.000;0.000;2023-06-10T09:31:11;93355.16;;;33.08;33.43
76086;BME280;64791;0.000;0.000;2023-06-10T09:33:37;93341.97;;;32.14;29.17
76086;BME280;64791;0.000;0.000;2023-06-10T09:36:04;93344.09;;;32.10;32.41
76086;BME280;64791;0.000;0.000;2023-06-10T09:38:31;93344.34;;;32.80;33.19
76086;BME280;64791;0.000;0.000;2023-06-10T09:40:57;93346.56;;;33.16;33.13
76086;BME280;64791;0.000;0.000;2023-06-10T09:43:23;93345.84;;;33.14;30.98
76086;BME280;64791;0.000;0.000;2023-06-10T09:46:03;93346.47;;;33.99;30.95
76086;BME280;64791;0.000;0.000;2023-06-10T09:48:29;93355.75;;;34.25;31.92
76086;BME280;64791;0.000;0.000;2023-06-10T09:50:54;93346.38;;;34.33;31.88
76086;BME280;64791;0.000;0.000;2023-06-10T09:53:20;93341.56;;;33.59;29.05
76086;BME280;64791;0.000;0.000;2023-06-10T09:55:46;93340.13;;;33.34;31.14
76086;BME280;64791;0.000;0.000;2023-06-10T09:58:12;93340.13;;;33.26;32.86
76086;BME280;64791;0.000;0.000;2023-06-10T10:00:37;93333.63;;;32.83;30.02
76086;BME280;64791;0.000;0.000;2023-06-10T10:03:03;93330.56;;;32.18;31.61
76086;BME280;64791;0.000;0.000;2023-06-10T10:05:29;93322.28;;;31.40;31.90
76086;BME280;64791;0.000;0.000;2023-06-10T10:07:55;93334.69;;;30.91;32.52
76086;BME280;64791;0.000;0.000;2023-06-10T10:10:21;93343.00;;;30.69;34.03
76086;BME280;64791;0.000;0.000;2023-06-10T10:12:47;93339.31;;;30.56;33.88
76086;BME280;64791;0.000;0.000;2023-06-10T10:15:13;93327.03;;;31.10;33.93
76086;BME280;64791;0.000;0.000;2023-06-10T10:17:44;93327.81;;;31.18;33.89
76086;BME280;64791;0.000;0.000;2023-06-10T10:20:12;93317.31;;;30.63;31.31
76086;BME280;64791;0.000;0.000;2023-06-10T10:22:38;93316.16;;;30.92;34.42
76086;BME280;64791;0.000;0.000;2023-06-10T10:25:05;93316.31;;;31.06;34.87
76086;BME280;64791;0.000;0.000;2023-06-10T10:27:36;93308.50;;;31.11;35.08
76086;BME280;64791;0.000;0.000;2023-06-10T10:30:02;93314.00;;;30.89;32.11
76086;BME280;64791;0.000;0.000;2023-06-10T10:32:51;93302.59;;;29.65;32.34
76086;BME280;64791;0.000;0.000;2023-06-10T10:35:21;93311.22;;;29.69;31.44
76086;BME280;64791;0.000;0.000;2023-06-10T10:37:48;93320.00;;;29.87;33.12
76086;BME280;64791;0.000;0.000;2023-06-10T10:40:14;93305.25;;;30.02;31.18
76086;BME280;64791;0.000;0.000;2023-06-10T10:42:40;93300.88;;;29.95;33.36
76086;BME280;64791;0.000;0.000;2023-06-10T10:45:06;93298.91;;;30.74;34.95
76086;BME280;64791;0.000;0.000;2023-06-10T10:47:32;93298.69;;;31.32;33.41
76086;BME280;64791;0.000;0.000;2023-06-10T10:49:59;93296.84;;;31.77;32.61
76086;BME280;64791;0.000;0.000;2023-06-10T10:52:25;93300.47;;;31.95;33.18
76086;BME280;64791;0.000;0.000;2023-06-10T10:54:52;93286.00;;;31.51;29.89
76086;BME280;64791;0.000;0.000;2023-06-10T10:57:23;93293.69;;;31.34;31.29
76086;BME280;64791;0.000;0.000;2023-06-10T11:02:17;93277.50;;;31.63;28.52
76086;BME280;64791;0.000;0.000;2023-06-10T11:04:46;93278.28;;;31.78;28.59
76086;BME280;64791;0.000;0.000;2023-06-10T11:07:12;93283.25;;;31.75;32.96
76086;BME280;64791;0.000;0.000;2023-06-10T11:15:28;93273.72;;;31.28;28.18
76086;BME280;64791;0.000;0.000;2023-06-10T11:28:40;93252.41;;;31.43;31.66
76086;BME280;64791;0.000;0.000;2023-06-10T11:31:06;93236.19;;;31.68;31.75
76086;BME280;64791;0.000;0.000;2023-06-10T11:33:31;93234.06;;;31.71;30.29
76086;BME280;64791;0.000;0.000;2023-06-10T11:35:58;93239.16;;;31.96;30.99
76086;BME280;64791;0.000;0.000;2023-06-10T11:38:24;93237.09;;;32.33;29.73
76086;BME280;64791;0.000;0.000;2023-06-10T11:40:50;93239.28;;;32.35;26.46
76086;BME280;64791;0.000;0.000;2023-06-10T11:43:19;93227.91;;;32.73;27.17
76086;BME280;64791;0.000;0.000;2023-06-10T11:45:44;93233.56;;;32.37;27.48
76086;BME280;64791;0.000;0.000;2023-06-10T11:48:10;93229.97;;;32.32;27.06
76086;BME280;64791;0.000;0.000;2023-06-10T11:50:37;93225.56;;;31.91;29.03
76086;BME280;64791;0.000;0.000;2023-06-10T11:53:03;93227.84;;;32.43;29.62
76086;BME280;64791;0.000;0.000;2023-06-10T11:55:41;93227.19;;;33.03;30.39
76086;BME280;64791;0.000;0.000;2023-06-10T11:58:14;93225.72;;;33.28;28.64
76086;BME280;64791;0.000;0.000;2023-06-10T12:00:44;93223.63;;;33.12;25.87
76086;BME280;64791;0.000;0.000;2023-06-10T12:03:10;93228.59;;;33.28;27.05
76086;BME280;64791;0.000;0.000;2023-06-10T12:05:36;93223.63;;;33.04;30.12
76086;BME280;64791;0.000;0.000;2023-06-10T12:08:08;93222.13;;;33.47;28.42
76086;BME280;64791;0.000;0.000;2023-06-10T12:10:38;93219.97;;;33.64;26.00
76086;BME280;64791;0.000;0.000;2023-06-10T12:13:04;93217.09;;;33.62;26.22
76086;BME280;64791;0.000;0.000;2023-06-10T12:15:29;93212.84;;;33.49;26.67
76086;BME280;64791;0.000;0.000;2023-06-10T12:17:55;93209.06;;;33.97;26.22
76086;BME280;64791;0.000;0.000;2023-06-10T12:20:25;93211.25;;;34.00;26.31
76086;BME280;64791;0.000;0.000;2023-06-10T12:22:50;93218.50;;;33.65;29.96
76086;BME280;64791;0.000;0.000;2023-06-10T12:25:16;93210.75;;;32.69;29.79
76086;BME280;64791;0.000;0.000;2023-06-10T12:27:51;93211.41;;;32.27;27.73
76086;BME280;64791;0.000;0.000;2023-06-10T12:30:22;93214.13;;;31.79;28.17
76086;BME280;64791;0.000;0.000;2023-06-10T12:32:48;93215.16;;;31.07;32.69
76086;BME280;64791;0.000;0.000;2023-06-10T12:35:16;93211.75;;;30.41;31.78
76086;BME280;64791;0.000;0.000;2023-06-10T12:37:43;93205.69;;;30.02;32.75
76086;BME280;64791;0.000;0.000;2023-06-10T12:40:25;93218.31;;;29.87;32.88
76086;BME280;64791;0.000;0.000;2023-06-10T12:42:50;93215.34;;;29.77;33.77
76086;BME280;64791;0.000;0.000;2023-06-10T12:45:25;93212.88;;;29.52;33.53
76086;BME280;64791;0.000;0.000;2023-06-10T12:47:51;93203.59;;;29.45;33.59
76086;BME280;64791;0.000;0.000;2023-06-10T12:50:17;93207.47;;;29.20;34.08
76086;BME280;64791;0.000;0.000;2023-06-10T12:52:43;93202.41;;;29.12;34.54
76086;BME280;64791;0.000;0.000;2023-06-10T12:55:08;93195.22;;;29.05;35.21
76086;BME280;64791;0.000;0.000;2023-06-10T12:57:34;93200.16;;;29.05;34.58
76086;BME280;64791;0.000;0.000;2023-06-10T13:00:00;93196.84;;;29.20;35.84
76086;BME280;64791;0.000;0.000;2023-06-10T13:02:29;93197.63;;;29.27;34.12
76086;BME280;64791;0.000;0.000;2023-06-10T13:04:54;93191.53;;;28.97;34.49
76086;BME280;64791;0.000;0.000;2023-06-10T13:07:20;93194.41;;;28.99;32.81
76086;BME280;64791;0.000;0.000;2023-06-10T13:09:48;93191.88;;;28.73;34.97
76086;BME280;64791;0.000;0.000;2023-06-10T13:12:14;93195.31;;;28.66;33.71
76086;BME280;64791;0.000;0.000;2023-06-10T13:14:39;93201.59;;;28.60;35.44
76086;BME280;64791;0.000;0.000;2023-06-10T13:17:05;93201.75;;;28.70;34.94
76086;BME280;64791;0.000;0.000;2023-06-10T13:19:34;93209.72;;;28.78;35.86
76086;BME280;64791;0.000;0.000;2023-06-10T13:22:00;93204.97;;;28.94;34.26
76086;BME280;64791;0.000;0.000;2023-06-10T13:24:26;93198.50;;;28.88;34.25
76086;BME280;64791;0.000;0.000;2023-06-10T13:26:52;93205.75;;;28.99;35.26
76086;BME280;64791;0.000;0.000;2023-06-10T13:29:18;93203.47;;;28.87;35.54
76086;BME280;64791;0.000;0.000;2023-06-10T13:31:44;93203.31;;;28.77;33.46
76086;BME280;64791;0.000;0.000;2023-06-10T13:34:10;93196.03;;;28.68;34.45